createdAt,value
2018-09-25T00:01:43.479Z,54.00
2018-09-25T00:04:17.126Z,54.30
2018-09-25T00:06:50.735Z,55.40
2018-09-25T00:09:24.325Z,54.80
2018-09-25T00:11:57.987Z,54.90
2018-09-25T00:14:31.614Z,55.00
2018-09-25T00:17:05.343Z,54.80
2018-09-25T00:19:39.053Z,55.00
2018-09-25T00:22:12.738Z,55.20
2018-09-25T00:24:46.477Z,54.90
2018-09-25T00:27:20.204Z,55.10
2018-09-25T00:29:53.874Z,55.20
2018-09-25T00:32:27.455Z,55.50
2018-09-25T00:35:01.160Z,55.60
2018-09-25T00:37:35.117Z,55.70
2018-09-25T00:40:08.773Z,56.10
2018-09-25T00:42:42.365Z,56.40
2018-09-25T00:45:15.986Z,56.70
2018-09-25T00:47:49.656Z,56.60
2018-09-25T00:50:23.374Z,56.70
2018-09-25T00:52:57.028Z,57.00
2018-09-25T00:55:30.642Z,57.30
2018-09-25T00:58:04.215Z,57.20
2018-09-25T01:00:37.878Z,57.00
2018-09-25T01:03:11.733Z,57.00
2018-09-25T01:05:45.321Z,57.10
2018-09-25T01:08:19.052Z,57.10
2018-09-25T01:10:52.630Z,57.60
2018-09-25T01:13:26.268Z,57.40
2018-09-25T01:15:59.699Z,57.30
2018-09-25T01:18:39.966Z,57.20
2018-09-25T01:21:13.446Z,57.30
2018-09-25T01:23:47.199Z,56.80
2018-09-25T01:26:20.905Z,56.70
2018-09-25T01:28:54.570Z,56.70
2018-09-25T01:31:28.225Z,56.90
2018-09-25T01:34:01.862Z,57.40
2018-09-25T01:36:35.392Z,57.40
2018-09-25T01:39:10.264Z,57.80
2018-09-25T01:41:43.996Z,58.20
2018-09-25T01:44:17.702Z,58.30
2018-09-25T01:46:51.248Z,58.70
2018-09-25T01:49:24.972Z,58.80
2018-09-25T01:51:58.605Z,58.90
2018-09-25T01:54:32.210Z,59.00
2018-09-25T01:57:05.933Z,59.40
2018-09-25T01:59:39.475Z,59.30
2018-09-25T02:02:13.236Z,60.10
2018-09-25T02:04:46.842Z,60.30
2018-09-25T02:07:20.820Z,59.90
2018-09-25T02:09:54.500Z,60.00
2018-09-25T02:12:28.138Z,60.40
2018-09-25T02:15:01.771Z,60.00
2018-09-25T02:17:35.454Z,59.90
2018-09-25T02:20:09.149Z,59.10
2018-09-25T02:22:42.867Z,59.10
2018-09-25T02:25:16.510Z,59.50
2018-09-25T02:27:50.249Z,60.40
2018-09-25T02:30:23.949Z,60.20
2018-09-25T02:32:57.395Z,60.10
2018-09-25T02:35:31.099Z,60.00
2018-09-25T02:38:04.859Z,59.80
2018-09-25T02:40:38.465Z,59.80
2018-09-25T02:43:12.185Z,60.00
2018-09-25T02:45:45.757Z,60.10
2018-09-25T02:48:19.547Z,59.90
2018-09-25T02:50:53.426Z,59.30
2018-09-25T02:53:27.078Z,59.40
2018-09-25T02:56:00.817Z,59.40
2018-09-25T02:58:34.433Z,59.60
2018-09-25T03:01:08.012Z,59.50
2018-09-25T03:03:41.703Z,59.50
2018-09-25T03:06:15.462Z,59.80
2018-09-25T03:08:49.119Z,59.90
2018-09-25T03:11:22.762Z,59.80
2018-09-25T03:13:56.245Z,60.70
2018-09-25T03:16:29.950Z,61.30
2018-09-25T03:19:03.551Z,61.00
2018-09-25T03:21:37.071Z,61.50
2018-09-25T03:24:11.065Z,62.10
2018-09-25T03:26:44.759Z,61.40
2018-09-25T03:29:18.460Z,61.80
2018-09-25T03:31:52.065Z,61.90
2018-09-25T03:34:25.746Z,61.70
2018-09-25T03:36:59.450Z,61.80
2018-09-25T03:39:33.335Z,60.40
2018-09-25T03:42:06.885Z,60.60
2018-09-25T03:44:40.558Z,60.70
2018-09-25T03:47:15.174Z,60.60
2018-09-25T03:49:48.750Z,60.80
2018-09-25T03:52:22.348Z,61.10
2018-09-25T03:54:56.089Z,61.10
2018-09-25T03:57:29.673Z,61.80
2018-09-25T04:00:03.327Z,62.00
2018-09-25T04:02:37.064Z,62.40
2018-09-25T04:05:10.826Z,62.70
2018-09-25T04:07:44.536Z,63.00
2018-09-25T04:10:18.592Z,62.30
2018-09-25T04:12:52.142Z,63.00
2018-09-25T04:15:29.396Z,62.60
2018-09-25T04:18:03.583Z,62.40
2018-09-25T04:20:37.630Z,62.20
2018-09-25T04:23:11.159Z,61.80
2018-09-25T04:25:44.798Z,61.30
2018-09-25T04:28:18.490Z,61.40
2018-09-25T04:30:52.254Z,61.30
2018-09-25T04:33:26.065Z,61.30
2018-09-25T04:35:59.620Z,62.30
2018-09-25T04:38:33.267Z,61.90
2018-09-25T04:41:07.103Z,61.70
2018-09-25T04:43:40.735Z,61.60
2018-09-25T04:46:14.718Z,62.30
2018-09-25T04:48:48.445Z,62.80
2018-09-25T04:51:22.644Z,63.30
2018-09-25T04:53:56.176Z,63.20
2018-09-25T04:56:29.853Z,63.50
2018-09-25T04:59:04.484Z,63.30
2018-09-25T05:01:38.202Z,62.90
2018-09-25T05:04:11.793Z,62.70
2018-09-25T05:06:45.552Z,62.70
2018-09-25T05:09:19.150Z,62.60
2018-09-25T05:11:52.897Z,63.00
2018-09-25T05:14:26.459Z,62.70
2018-09-25T05:17:00.236Z,62.30
2018-09-25T05:19:34.371Z,62.40
2018-09-25T05:22:08.405Z,62.20
2018-09-25T05:24:42.356Z,62.20
2018-09-25T05:27:16.010Z,61.90
2018-09-25T05:29:49.798Z,61.80
2018-09-25T05:32:23.445Z,61.40
2018-09-25T05:34:57.386Z,61.30
2018-09-25T05:37:30.903Z,61.00
2018-09-25T05:40:04.410Z,60.70
2018-09-25T05:42:38.975Z,61.10
2018-09-25T05:45:12.667Z,60.20
2018-09-25T05:47:48.262Z,60.00
2018-09-25T05:50:21.879Z,60.00
2018-09-25T05:52:55.598Z,59.90
2018-09-25T05:55:29.348Z,59.50
2018-09-25T05:58:03.063Z,59.30
2018-09-25T06:00:36.849Z,59.30
2018-09-25T06:03:10.449Z,59.10
2018-09-25T06:05:44.184Z,59.00
2018-09-25T06:08:17.962Z,59.90
2018-09-25T06:10:52.136Z,59.20
2018-09-25T06:13:26.175Z,59.80
2018-09-25T06:15:59.873Z,60.00
2018-09-25T06:18:33.623Z,59.70
2018-09-25T06:21:07.187Z,59.30
2018-09-25T06:23:40.846Z,59.20
2018-09-25T06:26:14.656Z,59.10
2018-09-25T06:28:48.209Z,58.10
2018-09-25T06:31:21.799Z,57.80
2018-09-25T06:33:55.427Z,57.10
2018-09-25T06:36:28.993Z,56.30
2018-09-25T06:39:02.790Z,56.80
2018-09-25T06:41:36.398Z,55.40
2018-09-25T06:44:10.117Z,55.40
2018-09-25T06:46:43.796Z,54.00
2018-09-25T06:49:17.411Z,53.60
2018-09-25T06:51:51.109Z,52.10
2018-09-25T06:54:24.708Z,50.80
2018-09-25T06:56:58.498Z,51.20
2018-09-25T06:59:32.017Z,48.60
2018-09-25T07:02:05.618Z,46.80
2018-09-25T07:04:39.180Z,47.60
2018-09-25T07:07:12.956Z,46.70
2018-09-25T07:09:46.826Z,46.50
2018-09-25T07:12:27.355Z,45.30
2018-09-25T07:15:01.111Z,44.40
2018-09-25T07:17:35.402Z,44.20
2018-09-25T07:20:09.065Z,43.80
2018-09-25T07:22:43.013Z,43.20
2018-09-25T07:25:16.706Z,42.80
2018-09-25T07:27:50.337Z,41.80
2018-09-25T07:30:24.033Z,41.50
2018-09-25T07:32:57.788Z,41.70
2018-09-25T07:35:31.590Z,40.80
2018-09-25T07:38:05.190Z,40.80
2018-09-25T07:40:38.841Z,40.80
2018-09-25T07:43:12.497Z,41.30
2018-09-25T07:45:46.195Z,41.80
2018-09-25T07:48:19.939Z,38.10
2018-09-25T07:50:53.557Z,37.10
2018-09-25T07:53:27.228Z,37.60
2018-09-25T07:56:00.969Z,35.60
2018-09-25T07:58:34.708Z,36.90
2018-09-25T08:01:08.432Z,33.80
2018-09-25T08:03:42.222Z,35.50
2018-09-25T08:06:15.854Z,31.90
2018-09-25T08:08:49.533Z,32.00
2018-09-25T08:11:23.258Z,31.40
2018-09-25T08:13:56.837Z,32.20
2018-09-25T08:16:30.509Z,31.90
2018-09-25T08:19:04.346Z,32.00
2018-09-25T08:21:38.100Z,32.70
2018-09-25T08:24:11.806Z,32.20
2018-09-25T08:26:45.374Z,32.20
2018-09-25T08:29:18.983Z,31.20
2018-09-25T08:31:52.604Z,31.40
2018-09-25T08:34:26.140Z,32.80
2018-09-25T08:36:59.805Z,29.80
2018-09-25T08:39:33.548Z,30.00
2018-09-25T08:42:07.056Z,29.40
2018-09-25T08:44:40.659Z,30.00
2018-09-25T08:47:14.347Z,29.00
2018-09-25T08:49:48.231Z,29.40
2018-09-25T08:52:28.253Z,29.10
2018-09-25T08:55:01.854Z,28.10
2018-09-25T08:57:35.490Z,27.90
2018-09-25T09:00:09.249Z,28.60
2018-09-25T09:02:42.923Z,28.80
2018-09-25T09:05:16.724Z,28.40
2018-09-25T09:07:50.504Z,28.30
2018-09-25T09:10:24.164Z,28.20
2018-09-25T09:12:57.946Z,28.90
2018-09-25T09:15:31.654Z,29.50
2018-09-25T09:18:05.253Z,29.50
2018-09-25T09:20:39.001Z,29.50
2018-09-25T09:23:12.766Z,29.00
2018-09-25T09:25:46.412Z,29.50
2018-09-25T09:28:20.028Z,28.30
2018-09-25T09:31:00.285Z,26.70
2018-09-25T09:33:33.849Z,27.70
2018-09-25T09:36:07.684Z,28.20
2018-09-25T09:38:41.435Z,27.60
2018-09-25T09:41:15.143Z,26.30
2018-09-25T09:43:48.719Z,26.80
2018-09-25T09:46:22.394Z,26.80
2018-09-25T09:48:56.123Z,27.40
2018-09-25T09:51:29.877Z,27.70
2018-09-25T09:54:03.530Z,26.40
2018-09-25T09:56:37.789Z,27.00
2018-09-25T09:59:11.962Z,26.70
2018-09-25T10:01:45.684Z,27.50
2018-09-25T10:04:19.554Z,26.80
2018-09-25T10:06:53.389Z,27.60
2018-09-25T10:09:26.779Z,27.00
2018-09-25T10:12:00.491Z,27.30
2018-09-25T10:14:34.129Z,27.10
2018-09-25T10:17:07.802Z,27.40
2018-09-25T10:19:41.500Z,27.90
2018-09-25T10:22:15.165Z,27.70
2018-09-25T10:24:48.855Z,27.80
2018-09-25T10:27:22.709Z,26.90
2018-09-25T10:29:56.646Z,27.30
2018-09-25T10:32:30.315Z,26.50
2018-09-25T10:35:04.032Z,27.10
2018-09-25T10:37:37.629Z,26.10
2018-09-25T10:40:11.285Z,26.90
2018-09-25T10:42:44.901Z,26.40
2018-09-25T10:45:18.536Z,25.70
2018-09-25T10:47:52.147Z,25.20
2018-09-25T10:50:25.954Z,26.00
2018-09-25T10:52:59.650Z,23.40
2018-09-25T10:55:33.291Z,24.50
2018-09-25T10:58:06.957Z,23.30
2018-09-25T11:00:40.786Z,23.90
2018-09-25T11:03:14.559Z,24.80
2018-09-25T11:05:48.008Z,24.80
2018-09-25T11:08:21.874Z,25.70
2018-09-25T11:10:55.545Z,26.10
2018-09-25T11:13:29.229Z,25.90
2018-09-25T11:16:02.902Z,26.60
2018-09-25T11:18:36.631Z,26.00
2018-09-25T11:21:10.267Z,25.40
2018-09-25T11:23:43.989Z,26.00
2018-09-25T11:26:17.881Z,25.90
2018-09-25T11:28:51.443Z,24.40
2018-09-25T11:31:25.789Z,25.20
2018-09-25T11:33:59.462Z,25.30
2018-09-25T11:36:33.092Z,25.60
2018-09-25T11:39:06.884Z,25.80
2018-09-25T11:41:40.651Z,25.90
2018-09-25T11:44:14.455Z,26.40
2018-09-25T11:46:48.269Z,26.30
2018-09-25T11:49:21.802Z,26.40
2018-09-25T11:51:55.596Z,25.80
2018-09-25T11:54:29.549Z,25.70
2018-09-25T11:57:03.150Z,25.70
2018-09-25T11:59:36.734Z,24.30
2018-09-25T12:02:10.368Z,24.90
2018-09-25T12:04:44.050Z,24.90
2018-09-25T12:07:17.580Z,25.10
2018-09-25T12:09:51.224Z,24.00
2018-09-25T12:12:25.065Z,24.00
2018-09-25T12:14:58.782Z,23.90
2018-09-25T12:17:32.428Z,24.00
2018-09-25T12:20:06.034Z,24.70
2018-09-25T12:22:39.724Z,24.70
2018-09-25T12:25:13.461Z,24.90
2018-09-25T12:27:47.012Z,25.40
2018-09-25T12:30:20.705Z,25.00
2018-09-25T12:32:54.519Z,24.90
2018-09-25T12:35:28.285Z,24.60
2018-09-25T12:38:01.973Z,23.40
2018-09-25T12:40:35.590Z,23.20
2018-09-25T12:43:09.171Z,25.00
2018-09-25T12:45:42.791Z,24.20
2018-09-25T12:48:16.551Z,24.10
2018-09-25T12:50:50.306Z,24.30
2018-09-25T12:53:24.009Z,25.30
2018-09-25T12:55:57.767Z,25.80
2018-09-25T12:58:31.420Z,24.80
2018-09-25T13:01:05.272Z,24.20
2018-09-25T13:03:39.171Z,24.20
2018-09-25T13:06:12.985Z,23.60
2018-09-25T13:08:46.607Z,23.50
2018-09-25T13:11:20.237Z,24.70
2018-09-25T13:13:53.946Z,25.20
2018-09-25T13:16:27.529Z,25.80
2018-09-25T13:19:01.429Z,25.80
2018-09-25T13:21:35.123Z,25.70
2018-09-25T13:24:08.878Z,26.00
2018-09-25T13:26:42.520Z,25.60
2018-09-25T13:29:16.257Z,25.20
2018-09-25T13:31:50.071Z,25.30
2018-09-25T13:34:23.791Z,25.20
2018-09-25T13:36:57.370Z,25.30
2018-09-25T13:39:31.082Z,25.60
2018-09-25T13:42:04.790Z,25.40
2018-09-25T13:44:38.545Z,25.20
2018-09-25T13:47:12.235Z,25.30
2018-09-25T13:49:46.089Z,24.40
2018-09-25T13:52:19.600Z,24.80
2018-09-25T13:54:53.378Z,24.20
2018-09-25T13:57:26.899Z,24.30
2018-09-25T14:00:00.542Z,24.50
2018-09-25T14:02:34.359Z,24.20
2018-09-25T14:05:07.907Z,24.80
2018-09-25T14:07:41.602Z,23.90
2018-09-25T14:10:15.220Z,24.10
2018-09-25T14:12:48.782Z,24.20
2018-09-25T14:15:22.511Z,24.00
2018-09-25T14:17:56.232Z,24.40
2018-09-25T14:20:29.917Z,23.90
2018-09-25T14:23:03.624Z,23.30
2018-09-25T14:25:37.315Z,24.00
2018-09-25T14:28:10.880Z,24.00
2018-09-25T14:30:44.509Z,24.30
2018-09-25T14:33:18.177Z,24.60
2018-09-25T14:35:51.994Z,24.00
2018-09-25T14:38:26.237Z,24.10
2018-09-25T14:40:59.801Z,23.90
2018-09-25T14:43:33.540Z,24.20
2018-09-25T14:46:07.195Z,23.50
2018-09-25T14:48:40.989Z,23.90
2018-09-25T14:51:14.566Z,24.40
2018-09-25T14:53:48.220Z,24.90
2018-09-25T14:56:21.861Z,24.60
2018-09-25T14:58:55.641Z,25.10
2018-09-25T15:01:29.171Z,25.40
2018-09-25T15:04:02.828Z,25.10
2018-09-25T15:06:36.633Z,25.20
2018-09-25T15:09:13.135Z,24.60
2018-09-25T15:11:47.339Z,24.70
2018-09-25T15:14:21.071Z,23.80
2018-09-25T15:16:54.830Z,24.00
2018-09-25T15:19:28.578Z,23.80
2018-09-25T15:22:02.655Z,23.80
2018-09-25T15:24:36.071Z,23.30
2018-09-25T15:27:09.797Z,24.20
2018-09-25T15:29:43.503Z,24.30
2018-09-25T15:32:17.210Z,24.30
2018-09-25T15:34:51.028Z,24.30
2018-09-25T15:37:24.605Z,24.50
2018-09-25T15:39:58.425Z,24.60
2018-09-25T15:42:32.086Z,25.00
2018-09-25T15:45:05.836Z,25.10
2018-09-25T15:47:39.468Z,25.10
2018-09-25T15:50:13.137Z,24.70
2018-09-25T15:52:46.893Z,24.80
2018-09-25T15:55:20.580Z,24.80
2018-09-25T15:57:54.349Z,24.90
2018-09-25T16:00:28.350Z,25.40
2018-09-25T16:03:01.974Z,25.00
2018-09-25T16:05:35.798Z,25.20
2018-09-25T16:08:09.483Z,25.20
2018-09-25T16:10:43.243Z,25.40
2018-09-25T16:13:16.843Z,25.50
2018-09-25T16:15:51.674Z,25.60
2018-09-25T16:18:25.386Z,25.70
2018-09-25T16:20:59.054Z,25.80
2018-09-25T16:23:32.475Z,25.60
2018-09-25T16:26:06.082Z,25.90
2018-09-25T16:28:40.008Z,25.90
2018-09-25T16:31:13.557Z,26.30
2018-09-25T16:33:47.188Z,26.60
2018-09-25T16:36:20.793Z,27.00
2018-09-25T16:38:54.529Z,26.90
2018-09-25T16:41:28.080Z,27.10
2018-09-25T16:44:01.702Z,26.90
2018-09-25T16:46:35.363Z,26.50
2018-09-25T16:49:09.031Z,26.80
2018-09-25T16:51:42.623Z,26.80
2018-09-25T16:54:16.478Z,27.20
2018-09-25T16:56:50.408Z,27.50
2018-09-25T16:59:24.037Z,27.60
2018-09-25T17:01:57.830Z,27.80
2018-09-25T17:04:31.492Z,28.10
2018-09-25T17:07:05.668Z,27.90
2018-09-25T17:09:39.356Z,28.10
2018-09-25T17:12:13.262Z,28.20
2018-09-25T17:14:46.987Z,28.40
2018-09-25T17:17:20.578Z,28.60
2018-09-25T17:19:54.172Z,28.80
2018-09-25T17:22:27.854Z,28.90
2018-09-25T17:25:01.594Z,28.80
2018-09-25T17:27:35.235Z,29.10
2018-09-25T17:30:08.937Z,29.30
2018-09-25T17:32:42.673Z,29.30
2018-09-25T17:35:16.275Z,29.20
2018-09-25T17:37:49.974Z,29.50
2018-09-25T17:40:23.598Z,29.50
2018-09-25T17:42:57.341Z,29.50
2018-09-25T17:45:31.150Z,29.60
2018-09-25T17:48:04.707Z,29.60
2018-09-25T17:50:38.396Z,29.70
2018-09-25T17:53:12.132Z,29.90
2018-09-25T17:55:45.810Z,30.00
2018-09-25T17:58:19.502Z,30.00
2018-09-25T18:00:53.493Z,30.00
2018-09-25T18:03:27.023Z,30.10
2018-09-25T18:06:00.754Z,30.40
2018-09-25T18:08:34.538Z,30.50
2018-09-25T18:11:08.096Z,31.10
2018-09-25T18:13:41.636Z,31.10
2018-09-25T18:16:21.799Z,31.50
2018-09-25T18:18:55.478Z,32.30
2018-09-25T18:21:35.809Z,32.10
2018-09-25T18:24:09.472Z,32.50
2018-09-25T18:26:43.561Z,32.10
2018-09-25T18:29:17.186Z,32.40
2018-09-25T18:31:50.866Z,32.20
2018-09-25T18:34:24.544Z,32.80
2018-09-25T18:36:58.271Z,33.20
2018-09-25T18:39:31.951Z,33.60
2018-09-25T18:42:05.597Z,34.00
2018-09-25T18:44:39.282Z,33.70
2018-09-25T18:47:13.398Z,33.90
2018-09-25T18:49:47.077Z,34.50
2018-09-25T18:52:20.771Z,33.90
2018-09-25T18:54:54.588Z,33.70
2018-09-25T18:57:28.116Z,33.70
2018-09-25T19:00:01.890Z,34.00
2018-09-25T19:02:35.734Z,34.00
2018-09-25T19:05:09.401Z,33.90
2018-09-25T19:07:42.992Z,34.50
2018-09-25T19:10:16.933Z,34.50
2018-09-25T19:12:50.730Z,34.20
2018-09-25T19:15:24.483Z,34.20
2018-09-25T19:17:58.114Z,35.50
2018-09-25T19:20:31.797Z,36.10
2018-09-25T19:23:05.705Z,36.20
2018-09-25T19:25:39.463Z,36.10
2018-09-25T19:28:13.107Z,36.60
2018-09-25T19:30:46.788Z,37.80
2018-09-25T19:33:21.149Z,36.90
2018-09-25T19:35:54.835Z,36.90
2018-09-25T19:38:28.589Z,37.40
2018-09-25T19:41:02.350Z,37.30
2018-09-25T19:43:36.152Z,37.20
2018-09-25T19:46:09.775Z,37.60
2018-09-25T19:48:43.414Z,37.60
2018-09-25T19:51:17.015Z,37.90
2018-09-25T19:53:50.627Z,38.50
2018-09-25T19:56:24.302Z,38.70
2018-09-25T19:58:58.228Z,38.70
2018-09-25T20:01:31.841Z,38.30
2018-09-25T20:04:05.719Z,38.70
2018-09-25T20:06:39.861Z,38.50
2018-09-25T20:09:14.245Z,38.50
2018-09-25T20:11:48.232Z,38.80
2018-09-25T20:14:21.862Z,38.20
2018-09-25T20:16:55.665Z,38.50
2018-09-25T20:19:29.492Z,38.10
2018-09-25T20:22:02.930Z,38.40
2018-09-25T20:24:36.588Z,38.20
2018-09-25T20:27:10.293Z,38.40
2018-09-25T20:29:43.995Z,38.40
2018-09-25T20:32:17.697Z,38.40
2018-09-25T20:34:51.315Z,38.40
2018-09-25T20:37:31.896Z,38.60
2018-09-25T20:40:05.476Z,39.40
2018-09-25T20:42:39.138Z,39.30
2018-09-25T20:45:12.918Z,38.70
2018-09-25T20:47:46.564Z,38.60
2018-09-25T20:50:20.278Z,38.30
2018-09-25T20:52:53.772Z,38.50
2018-09-25T20:55:27.553Z,39.10
2018-09-25T20:58:01.096Z,38.60
2018-09-25T21:00:34.640Z,38.30
2018-09-25T21:03:08.372Z,38.50
2018-09-25T21:05:41.853Z,38.80
2018-09-25T21:08:15.486Z,39.20
2018-09-25T21:10:49.166Z,39.70
2018-09-25T21:13:22.860Z,39.90
2018-09-25T21:15:56.530Z,40.70
2018-09-25T21:18:30.281Z,40.50
2018-09-25T21:21:04.058Z,40.50
2018-09-25T21:23:37.768Z,40.00
2018-09-25T21:26:11.578Z,40.40
2018-09-25T21:28:45.603Z,39.60
2018-09-25T21:31:19.224Z,39.80
2018-09-25T21:33:52.981Z,39.80
2018-09-25T21:36:26.531Z,39.90
2018-09-25T21:39:06.907Z,39.60
2018-09-25T21:41:40.458Z,39.90
2018-09-25T21:44:14.266Z,39.30
2018-09-25T21:46:47.908Z,39.30
2018-09-25T21:49:21.648Z,39.40
2018-09-25T21:51:55.362Z,39.60
2018-09-25T21:54:29.067Z,39.50
2018-09-25T21:57:02.786Z,39.30
2018-09-25T21:59:36.788Z,39.50
2018-09-25T22:02:10.391Z,39.50
2018-09-25T22:04:43.942Z,39.30
2018-09-25T22:07:17.599Z,39.30
2018-09-25T22:09:51.187Z,39.30
2018-09-25T22:12:24.889Z,39.70
2018-09-25T22:14:58.638Z,40.20
2018-09-25T22:17:32.298Z,40.20
2018-09-25T22:20:05.923Z,40.00
2018-09-25T22:22:39.597Z,39.80
2018-09-25T22:25:13.205Z,40.50
2018-09-25T22:27:46.955Z,40.20
2018-09-25T22:30:20.672Z,39.80
2018-09-25T22:32:54.357Z,39.80
2018-09-25T22:35:27.866Z,40.20
2018-09-25T22:38:01.542Z,41.50
2018-09-25T22:40:35.110Z,40.70
2018-09-25T22:43:09.287Z,40.50
2018-09-25T22:45:43.024Z,40.90
2018-09-25T22:48:16.627Z,41.00
2018-09-25T22:50:50.274Z,41.20
2018-09-25T22:53:24.035Z,41.60
2018-09-25T22:55:57.642Z,41.60
2018-09-25T22:58:31.277Z,41.90
2018-09-25T23:01:04.848Z,42.20
2018-09-25T23:03:38.454Z,42.50
2018-09-25T23:06:12.162Z,42.50
2018-09-25T23:08:45.794Z,42.80
2018-09-25T23:11:19.485Z,42.90
2018-09-25T23:13:53.152Z,43.10
2018-09-25T23:16:26.913Z,43.30
2018-09-25T23:19:00.659Z,43.00
2018-09-25T23:21:34.064Z,42.80
2018-09-25T23:24:07.717Z,42.90
2018-09-25T23:26:41.396Z,42.60
2018-09-25T23:29:15.071Z,42.60
2018-09-25T23:31:48.730Z,42.60
2018-09-25T23:34:22.429Z,42.40
2018-09-25T23:36:56.174Z,42.40
2018-09-25T23:39:34.300Z,42.70
2018-09-25T23:42:14.948Z,42.50
2018-09-25T23:44:48.598Z,42.70
2018-09-25T23:47:34.794Z,42.80
2018-09-25T23:50:09.126Z,42.70
2018-09-25T23:52:39.741Z,43.00
2018-09-25T23:55:12.168Z,42.70
2018-09-25T23:57:47.585Z,42.90
